sensor_id;sensor_type;location;lat;lon;timestamp;temperature;humidity
6256;DHT22;3161;48.794;9.784;2023-07-20T00:02:27;20.20;89.70
6256;DHT22;3161;48.794;9.784;2023-07-20T00:04:54;20.30;89.40
6256;DHT22;3161;48.794;9.784;2023-07-20T00:07:22;20.30;89.30
6256;DHT22;3161;48.794;9.784;2023-07-20T00:09:51;20.30;89.30
6256;DHT22;3161;48.794;9.784;2023-07-20T00:12:18;20.30;89.70
6256;DHT22;3161;48.794;9.784;2023-07-20T00:14:46;20.30;88.90
6256;DHT22;3161;48.794;9.784;2023-07-20T00:17:13;20.30;89.00
6256;DHT22;3161;48.794;9.784;2023-07-20T00:19:41;20.30;88.80
6256;DHT22;3161;48.794;9.784;2023-07-20T00:22:08;20.30;88.00
6256;DHT22;3161;48.794;9.784;2023-07-20T00:24:36;20.40;86.90
6256;DHT22;3161;48.794;9.784;2023-07-20T00:27:04;20.40;87.10
6256;DHT22;3161;48.794;9.784;2023-07-20T00:29:32;20.40;87.00
6256;DHT22;3161;48.794;9.784;2023-07-20T00:31:59;20.40;86.80
6256;DHT22;3161;48.794;9.784;2023-07-20T00:34:27;20.40;86.90
6256;DHT22;3161;48.794;9.784;2023-07-20T00:36:54;20.40;86.70
6256;DHT22;3161;48.794;9.784;2023-07-20T00:39:22;20.50;86.90
6256;DHT22;3161;48.794;9.784;2023-07-20T00:41:50;20.50;87.90
6256;DHT22;3161;48.794;9.784;2023-07-20T00:44:18;20.50;87.90
6256;DHT22;3161;48.794;9.784;2023-07-20T00:46:45;20.50;87.80
6256;DHT22;3161;48.794;9.784;2023-07-20T00:49:13;20.50;88.00
6256;DHT22;3161;48.794;9.784;2023-07-20T00:51:41;20.50;88.30
6256;DHT22;3161;48.794;9.784;2023-07-20T00:54:09;20.50;88.30
6256;DHT22;3161;48.794;9.784;2023-07-20T00:56:37;20.50;88.50
6256;DHT22;3161;48.794;9.784;2023-07-20T00:59:05;20.50;88.90
6256;DHT22;3161;48.794;9.784;2023-07-20T01:01:33;20.40;88.90
6256;DHT22;3161;48.794;9.784;2023-07-20T01:04:01;20.40;89.00
6256;DHT22;3161;48.794;9.784;2023-07-20T01:06:45;20.40;89.50
6256;DHT22;3161;48.794;9.784;2023-07-20T01:12:04;20.30;88.50
6256;DHT22;3161;48.794;9.784;2023-07-20T01:14:32;20.30;87.90
6256;DHT22;3161;48.794;9.784;2023-07-20T01:17:00;20.20;87.90
6256;DHT22;3161;48.794;9.784;2023-07-20T01:19:27;20.20;87.20
6256;DHT22;3161;48.794;9.784;2023-07-20T01:22:02;20.20;86.90
6256;DHT22;3161;48.794;9.784;2023-07-20T01:24:52;20.20;86.10
6256;DHT22;3161;48.794;9.784;2023-07-20T01:30:12;20.10;85.70
6256;DHT22;3161;48.794;9.784;2023-07-20T01:32:40;20.10;86.00
6256;DHT22;3161;48.794;9.784;2023-07-20T01:35:09;20.10;85.40
6256;DHT22;3161;48.794;9.784;2023-07-20T01:37:38;20.10;85.00
6256;DHT22;3161;48.794;9.784;2023-07-20T01:40:08;20.00;84.50
6256;DHT22;3161;48.794;9.784;2023-07-20T01:42:36;20.00;84.40
6256;DHT22;3161;48.794;9.784;2023-07-20T01:45:04;20.00;84.30
6256;DHT22;3161;48.794;9.784;2023-07-20T01:47:32;20.00;84.60
6256;DHT22;3161;48.794;9.784;2023-07-20T01:49:59;19.90;84.90
6256;DHT22;3161;48.794;9.784;2023-07-20T01:52:26;19.90;85.70
6256;DHT22;3161;48.794;9.784;2023-07-20T01:54:54;19.90;86.40
6256;DHT22;3161;48.794;9.784;2023-07-20T01:57:22;19.80;85.90
6256;DHT22;3161;48.794;9.784;2023-07-20T01:59:49;19.80;86.20
6256;DHT22;3161;48.794;9.784;2023-07-20T02:02:18;19.80;86.50
6256;DHT22;3161;48.794;9.784;2023-07-20T02:04:47;19.70;87.40
6256;DHT22;3161;48.794;9.784;2023-07-20T02:07:14;19.70;87.90
6256;DHT22;3161;48.794;9.784;2023-07-20T02:09:42;19.70;88.10
6256;DHT22;3161;48.794;9.784;2023-07-20T02:12:10;19.60;88.80
6256;DHT22;3161;48.794;9.784;2023-07-20T02:14:37;19.60;89.50
6256;DHT22;3161;48.794;9.784;2023-07-20T02:17:05;19.60;89.50
6256;DHT22;3161;48.794;9.784;2023-07-20T02:19:33;19.50;90.00
6256;DHT22;3161;48.794;9.784;2023-07-20T02:22:00;19.50;90.00
6256;DHT22;3161;48.794;9.784;2023-07-20T02:24:28;19.50;90.00
6256;DHT22;3161;48.794;9.784;2023-07-20T02:26:55;19.40;90.10
6256;DHT22;3161;48.794;9.784;2023-07-20T02:29:23;19.40;90.20
6256;DHT22;3161;48.794;9.784;2023-07-20T02:31:51;19.40;90.30
6256;DHT22;3161;48.794;9.784;2023-07-20T02:34:18;19.40;90.50
6256;DHT22;3161;48.794;9.784;2023-07-20T02:36:57;19.30;90.70
6256;DHT22;3161;48.794;9.784;2023-07-20T02:39:30;19.30;93.20
6256;DHT22;3161;48.794;9.784;2023-07-20T02:41:57;19.20;90.50
6256;DHT22;3161;48.794;9.784;2023-07-20T02:44:25;19.20;90.90
6256;DHT22;3161;48.794;9.784;2023-07-20T02:46:52;19.20;90.90
6256;DHT22;3161;48.794;9.784;2023-07-20T02:49:20;19.10;90.90
6256;DHT22;3161;48.794;9.784;2023-07-20T02:51:47;19.10;91.00
6256;DHT22;3161;48.794;9.784;2023-07-20T02:54:15;19.00;91.00
6256;DHT22;3161;48.794;9.784;2023-07-20T02:56:43;19.00;91.40
6256;DHT22;3161;48.794;9.784;2023-07-20T02:59:10;19.00;91.40
6256;DHT22;3161;48.794;9.784;2023-07-20T03:01:38;18.90;91.60
6256;DHT22;3161;48.794;9.784;2023-07-20T03:04:05;18.80;91.60
6256;DHT22;3161;48.794;9.784;2023-07-20T03:06:34;18.80;91.70
6256;DHT22;3161;48.794;9.784;2023-07-20T03:09:03;18.70;91.90
6256;DHT22;3161;48.794;9.784;2023-07-20T03:11:50;18.70;92.10
6256;DHT22;3161;48.794;9.784;2023-07-20T03:14:17;18.60;97.60
6256;DHT22;3161;48.794;9.784;2023-07-20T03:16:45;18.50;95.60
6256;DHT22;3161;48.794;9.784;2023-07-20T03:19:12;18.40;91.90
6256;DHT22;3161;48.794;9.784;2023-07-20T03:21:40;18.40;92.20
6256;DHT22;3161;48.794;9.784;2023-07-20T03:24:08;18.30;92.30
6256;DHT22;3161;48.794;9.784;2023-07-20T03:26:36;18.30;92.60
6256;DHT22;3161;48.794;9.784;2023-07-20T03:29:04;18.30;92.50
6256;DHT22;3161;48.794;9.784;2023-07-20T03:31:33;18.20;92.90
6256;DHT22;3161;48.794;9.784;2023-07-20T03:34:00;18.10;93.30
6256;DHT22;3161;48.794;9.784;2023-07-20T03:36:28;18.10;93.60
6256;DHT22;3161;48.794;9.784;2023-07-20T03:38:56;18.00;93.90
6256;DHT22;3161;48.794;9.784;2023-07-20T03:41:23;18.00;94.30
6256;DHT22;3161;48.794;9.784;2023-07-20T03:43:51;17.90;94.60
6256;DHT22;3161;48.794;9.784;2023-07-20T03:46:18;17.90;94.60
6256;DHT22;3161;48.794;9.784;2023-07-20T03:48:46;17.90;94.70
6256;DHT22;3161;48.794;9.784;2023-07-20T03:51:13;17.80;94.90
6256;DHT22;3161;48.794;9.784;2023-07-20T03:53:41;17.80;95.00
6256;DHT22;3161;48.794;9.784;2023-07-20T03:56:09;17.70;94.90
6256;DHT22;3161;48.794;9.784;2023-07-20T03:58:36;17.60;95.00
6256;DHT22;3161;48.794;9.784;2023-07-20T04:01:04;17.60;95.30
6256;DHT22;3161;48.794;9.784;2023-07-20T04:03:31;17.60;95.50
6256;DHT22;3161;48.794;9.784;2023-07-20T04:05:59;17.60;95.60
6256;DHT22;3161;48.794;9.784;2023-07-20T04:08:26;17.60;95.70
6256;DHT22;3161;48.794;9.784;2023-07-20T04:10:54;17.50;95.90
6256;DHT22;3161;48.794;9.784;2023-07-20T04:13:22;17.40;95.80
6256;DHT22;3161;48.794;9.784;2023-07-20T04:15:49;17.40;95.80
6256;DHT22;3161;48.794;9.784;2023-07-20T04:18:17;17.40;96.00
6256;DHT22;3161;48.794;9.784;2023-07-20T04:20:45;17.40;96.40
6256;DHT22;3161;48.794;9.784;2023-07-20T04:23:13;17.30;96.30
6256;DHT22;3161;48.794;9.784;2023-07-20T04:25:40;17.30;96.30
6256;DHT22;3161;48.794;9.784;2023-07-20T04:28:08;17.30;96.60
6256;DHT22;3161;48.794;9.784;2023-07-20T04:30:36;17.20;96.60
6256;DHT22;3161;48.794;9.784;2023-07-20T04:33:04;17.20;96.50
6256;DHT22;3161;48.794;9.784;2023-07-20T04:35:51;17.20;96.70
6256;DHT22;3161;48.794;9.784;2023-07-20T04:38:20;17.20;96.50
6256;DHT22;3161;48.794;9.784;2023-07-20T04:40:49;17.20;96.60
6256;DHT22;3161;48.794;9.784;2023-07-20T04:43:17;17.10;97.20
6256;DHT22;3161;48.794;9.784;2023-07-20T04:45:45;17.20;97.20
6256;DHT22;3161;48.794;9.784;2023-07-20T04:48:15;17.20;97.00
6256;DHT22;3161;48.794;9.784;2023-07-20T04:50:44;17.20;96.90
6256;DHT22;3161;48.794;9.784;2023-07-20T04:53:13;17.20;97.00
6256;DHT22;3161;48.794;9.784;2023-07-20T04:55:46;17.20;97.10
6256;DHT22;3161;48.794;9.784;2023-07-20T04:58:10;17.20;97.00
6256;DHT22;3161;48.794;9.784;2023-07-20T05:00:39;17.20;97.10
6256;DHT22;3161;48.794;9.784;2023-07-20T05:03:06;17.30;97.20
6256;DHT22;3161;48.794;9.784;2023-07-20T05:05:34;17.30;97.10
6256;DHT22;3161;48.794;9.784;2023-07-20T05:08:01;17.30;97.10
6256;DHT22;3161;48.794;9.784;2023-07-20T05:10:29;17.40;97.10
6256;DHT22;3161;48.794;9.784;2023-07-20T05:12:56;17.40;97.00
6256;DHT22;3161;48.794;9.784;2023-07-20T05:15:24;17.40;97.00
6256;DHT22;3161;48.794;9.784;2023-07-20T05:17:51;17.40;96.90
6256;DHT22;3161;48.794;9.784;2023-07-20T05:20:19;17.50;96.80
6256;DHT22;3161;48.794;9.784;2023-07-20T05:22:47;17.40;97.60
6256;DHT22;3161;48.794;9.784;2023-07-20T05:25:15;17.60;97.40
6256;DHT22;3161;48.794;9.784;2023-07-20T05:27:45;17.70;97.10
6256;DHT22;3161;48.794;9.784;2023-07-20T05:30:13;17.80;96.90
6256;DHT22;3161;48.794;9.784;2023-07-20T05:32:40;17.90;96.60
6256;DHT22;3161;48.794;9.784;2023-07-20T05:35:08;18.00;96.60
6256;DHT22;3161;48.794;9.784;2023-07-20T05:37:38;18.00;96.50
6256;DHT22;3161;48.794;9.784;2023-07-20T05:40:06;18.10;96.80
6256;DHT22;3161;48.794;9.784;2023-07-20T05:42:34;18.20;96.40
6256;DHT22;3161;48.794;9.784;2023-07-20T05:45:02;18.30;96.50
6256;DHT22;3161;48.794;9.784;2023-07-20T05:47:30;18.40;96.40
6256;DHT22;3161;48.794;9.784;2023-07-20T05:49:58;18.50;96.20
6256;DHT22;3161;48.794;9.784;2023-07-20T05:52:26;18.70;95.90
6256;DHT22;3161;48.794;9.784;2023-07-20T05:54:53;18.80;95.80
6256;DHT22;3161;48.794;9.784;2023-07-20T05:57:21;18.90;95.70
6256;DHT22;3161;48.794;9.784;2023-07-20T05:59:49;19.00;95.50
6256;DHT22;3161;48.794;9.784;2023-07-20T06:02:16;19.10;95.40
6256;DHT22;3161;48.794;9.784;2023-07-20T06:04:44;19.20;95.50
6256;DHT22;3161;48.794;9.784;2023-07-20T06:07:12;19.40;95.50
6256;DHT22;3161;48.794;9.784;2023-07-20T06:09:41;19.60;95.30
6256;DHT22;3161;48.794;9.784;2023-07-20T06:12:09;19.70;94.90
6256;DHT22;3161;48.794;9.784;2023-07-20T06:14:36;19.80;94.90
6256;DHT22;3161;48.794;9.784;2023-07-20T06:17:05;20.00;94.50
6256;DHT22;3161;48.794;9.784;2023-07-20T06:19:32;20.10;94.50
6256;DHT22;3161;48.794;9.784;2023-07-20T06:22:00;20.20;94.10
6256;DHT22;3161;48.794;9.784;2023-07-20T06:24:28;20.30;94.10
6256;DHT22;3161;48.794;9.784;2023-07-20T06:26:56;20.40;94.10
6256;DHT22;3161;48.794;9.784;2023-07-20T06:29:23;20.50;93.40
6256;DHT22;3161;48.794;9.784;2023-07-20T06:31:51;20.70;92.80
6256;DHT22;3161;48.794;9.784;2023-07-20T06:34:18;20.80;92.90
6256;DHT22;3161;48.794;9.784;2023-07-20T06:36:46;20.90;92.70
6256;DHT22;3161;48.794;9.784;2023-07-20T06:39:13;21.00;92.70
6256;DHT22;3161;48.794;9.784;2023-07-20T06:41:41;21.10;92.10
6256;DHT22;3161;48.794;9.784;2023-07-20T06:44:08;21.20;91.60
6256;DHT22;3161;48.794;9.784;2023-07-20T06:46:36;21.30;91.60
6256;DHT22;3161;48.794;9.784;2023-07-20T06:49:06;21.30;91.20
6256;DHT22;3161;48.794;9.784;2023-07-20T06:51:34;21.40;92.10
6256;DHT22;3161;48.794;9.784;2023-07-20T06:54:02;21.40;91.40
6256;DHT22;3161;48.794;9.784;2023-07-20T06:56:31;21.50;91.20
6256;DHT22;3161;48.794;9.784;2023-07-20T06:58:58;21.60;91.60
6256;DHT22;3161;48.794;9.784;2023-07-20T07:01:26;21.70;90.70
6256;DHT22;3161;48.794;9.784;2023-07-20T07:03:53;21.70;91.80
6256;DHT22;3161;48.794;9.784;2023-07-20T07:06:21;21.80;91.40
6256;DHT22;3161;48.794;9.784;2023-07-20T07:08:49;21.90;90.80
6256;DHT22;3161;48.794;9.784;2023-07-20T07:11:16;22.00;91.20
6256;DHT22;3161;48.794;9.784;2023-07-20T07:13:44;22.20;90.80
6256;DHT22;3161;48.794;9.784;2023-07-20T07:16:13;22.30;89.30
6256;DHT22;3161;48.794;9.784;2023-07-20T07:18:42;22.30;88.10
6256;DHT22;3161;48.794;9.784;2023-07-20T07:21:10;22.30;89.20
6256;DHT22;3161;48.794;9.784;2023-07-20T07:23:41;22.40;87.90
6256;DHT22;3161;48.794;9.784;2023-07-20T07:26:12;22.40;87.90
6256;DHT22;3161;48.794;9.784;2023-07-20T07:28:40;22.50;87.40
6256;DHT22;3161;48.794;9.784;2023-07-20T07:31:07;22.50;87.00
6256;DHT22;3161;48.794;9.784;2023-07-20T07:33:37;22.50;88.40
6256;DHT22;3161;48.794;9.784;2023-07-20T07:36:04;22.50;87.40
6256;DHT22;3161;48.794;9.784;2023-07-20T07:38:32;22.50;86.40
6256;DHT22;3161;48.794;9.784;2023-07-20T07:41:00;22.40;86.70
6256;DHT22;3161;48.794;9.784;2023-07-20T07:43:27;22.40;87.50
6256;DHT22;3161;48.794;9.784;2023-07-20T07:45:55;22.50;87.20
6256;DHT22;3161;48.794;9.784;2023-07-20T07:48:23;22.60;86.80
6256;DHT22;3161;48.794;9.784;2023-07-20T07:50:51;22.70;89.80
6256;DHT22;3161;48.794;9.784;2023-07-20T07:53:19;22.80;85.90
6256;DHT22;3161;48.794;9.784;2023-07-20T07:55:50;23.30;85.80
6256;DHT22;3161;48.794;9.784;2023-07-20T07:58:17;23.10;84.70
6256;DHT22;3161;48.794;9.784;2023-07-20T08:00:45;23.20;85.00
6256;DHT22;3161;48.794;9.784;2023-07-20T08:03:14;23.30;86.20
6256;DHT22;3161;48.794;9.784;2023-07-20T08:05:42;23.50;88.00
6256;DHT22;3161;48.794;9.784;2023-07-20T08:08:10;23.80;83.60
6256;DHT22;3161;48.794;9.784;2023-07-20T08:10:37;23.90;85.70
6256;DHT22;3161;48.794;9.784;2023-07-20T08:13:05;24.10;86.90
6256;DHT22;3161;48.794;9.784;2023-07-20T08:15:32;24.30;84.00
6256;DHT22;3161;48.794;9.784;2023-07-20T08:18:00;24.50;81.00
6256;DHT22;3161;48.794;9.784;2023-07-20T08:20:27;24.60;82.00
6256;DHT22;3161;48.794;9.784;2023-07-20T08:22:55;24.70;81.70
6256;DHT22;3161;48.794;9.784;2023-07-20T08:25:24;24.80;80.80
6256;DHT22;3161;48.794;9.784;2023-07-20T08:27:52;24.90;78.90
6256;DHT22;3161;48.794;9.784;2023-07-20T08:30:21;24.90;79.50
6256;DHT22;3161;48.794;9.784;2023-07-20T08:32:54;24.90;78.90
6256;DHT22;3161;48.794;9.784;2023-07-20T08:35:21;24.90;82.40
6256;DHT22;3161;48.794;9.784;2023-07-20T08:37:49;25.00;80.70
6256;DHT22;3161;48.794;9.784;2023-07-20T08:40:17;25.10;78.10
6256;DHT22;3161;48.794;9.784;2023-07-20T08:42:45;25.00;77.30
6256;DHT22;3161;48.794;9.784;2023-07-20T08:45:13;24.90;77.50
6256;DHT22;3161;48.794;9.784;2023-07-20T08:47:42;24.80;77.70
6256;DHT22;3161;48.794;9.784;2023-07-20T08:50:11;24.60;80.10
6256;DHT22;3161;48.794;9.784;2023-07-20T08:52:40;24.60;81.30
6256;DHT22;3161;48.794;9.784;2023-07-20T08:55:08;24.60;80.80
6256;DHT22;3161;48.794;9.784;2023-07-20T08:57:36;24.60;79.30
6256;DHT22;3161;48.794;9.784;2023-07-20T09:00:06;24.50;80.80
6256;DHT22;3161;48.794;9.784;2023-07-20T09:02:38;24.40;79.70
6256;DHT22;3161;48.794;9.784;2023-07-20T09:05:09;24.30;79.80
6256;DHT22;3161;48.794;9.784;2023-07-20T09:07:38;24.30;82.30
6256;DHT22;3161;48.794;9.784;2023-07-20T09:10:07;24.40;81.90
6256;DHT22;3161;48.794;9.784;2023-07-20T09:12:39;24.60;81.40
6256;DHT22;3161;48.794;9.784;2023-07-20T09:15:08;24.60;79.10
6256;DHT22;3161;48.794;9.784;2023-07-20T09:17:36;24.60;79.90
6256;DHT22;3161;48.794;9.784;2023-07-20T09:20:08;24.60;79.80
6256;DHT22;3161;48.794;9.784;2023-07-20T09:22:39;24.60;81.00
6256;DHT22;3161;48.794;9.784;2023-07-20T09:25:18;24.70;78.80
6256;DHT22;3161;48.794;9.784;2023-07-20T09:27:49;24.80;81.00
6256;DHT22;3161;48.794;9.784;2023-07-20T09:30:16;24.80;79.50
6256;DHT22;3161;48.794;9.784;2023-07-20T09:32:48;24.80;78.30
6256;DHT22;3161;48.794;9.784;2023-07-20T09:35:20;24.90;79.30
6256;DHT22;3161;48.794;9.784;2023-07-20T09:37:49;25.00;80.00
6256;DHT22;3161;48.794;9.784;2023-07-20T09:40:20;25.20;76.90
6256;DHT22;3161;48.794;9.784;2023-07-20T09:42:48;25.30;79.40
6256;DHT22;3161;48.794;9.784;2023-07-20T09:45:15;25.50;78.80
6256;DHT22;3161;48.794;9.784;2023-07-20T09:47:43;25.70;75.50
6256;DHT22;3161;48.794;9.784;2023-07-20T09:50:10;25.90;74.60
6256;DHT22;3161;48.794;9.784;2023-07-20T09:52:39;26.00;72.90
6256;DHT22;3161;48.794;9.784;2023-07-20T09:55:12;26.00;73.10
6256;DHT22;3161;48.794;9.784;2023-07-20T09:57:40;26.00;73.20
6256;DHT22;3161;48.794;9.784;2023-07-20T10:00:08;26.00;72.80
6256;DHT22;3161;48.794;9.784;2023-07-20T10:02:43;25.80;73.30
6256;DHT22;3161;48.794;9.784;2023-07-20T10:05:14;25.70;76.20
6256;DHT22;3161;48.794;9.784;2023-07-20T10:07:47;25.70;76.00
6256;DHT22;3161;48.794;9.784;2023-07-20T10:10:16;25.80;72.50
6256;DHT22;3161;48.794;9.784;2023-07-20T10:12:48;25.80;74.00
6256;DHT22;3161;48.794;9.784;2023-07-20T10:15:36;25.80;73.20
6256;DHT22;3161;48.794;9.784;2023-07-20T10:18:17;25.90;72.40
6256;DHT22;3161;48.794;9.784;2023-07-20T10:20:45;25.90;70.50
6256;DHT22;3161;48.794;9.784;2023-07-20T10:23:13;25.90;71.30
6256;DHT22;3161;48.794;9.784;2023-07-20T10:25:41;25.90;71.10
6256;DHT22;3161;48.794;9.784;2023-07-20T10:28:10;25.90;71.50
6256;DHT22;3161;48.794;9.784;2023-07-20T10:30:38;26.00;71.90
6256;DHT22;3161;48.794;9.784;2023-07-20T10:33:07;26.10;72.00
6256;DHT22;3161;48.794;9.784;2023-07-20T10:35:55;26.10;70.80
6256;DHT22;3161;48.794;9.784;2023-07-20T10:38:44;26.20;67.10
6256;DHT22;3161;48.794;9.784;2023-07-20T10:41:26;26.30;68.70
6256;DHT22;3161;48.794;9.784;2023-07-20T10:44:10;26.20;67.00
6256;DHT22;3161;48.794;9.784;2023-07-20T10:46:43;26.30;65.90
6256;DHT22;3161;48.794;9.784;2023-07-20T10:49:14;26.30;72.60
6256;DHT22;3161;48.794;9.784;2023-07-20T10:51:44;26.30;64.90
6256;DHT22;3161;48.794;9.784;2023-07-20T10:56:49;26.40;67.30
6256;DHT22;3161;48.794;9.784;2023-07-20T10:59:19;26.50;66.90
6256;DHT22;3161;48.794;9.784;2023-07-20T11:01:48;26.60;67.80
6256;DHT22;3161;48.794;9.784;2023-07-20T11:04:18;26.70;67.20
6256;DHT22;3161;48.794;9.784;2023-07-20T11:06:52;26.70;67.20
6256;DHT22;3161;48.794;9.784;2023-07-20T11:09:16;26.60;67.70
6256;DHT22;3161;48.794;9.784;2023-07-20T11:11:47;26.60;67.00
6256;DHT22;3161;48.794;9.784;2023-07-20T11:14:23;26.60;68.50
6256;DHT22;3161;48.794;9.784;2023-07-20T11:16:52;26.70;68.50
6256;DHT22;3161;48.794;9.784;2023-07-20T11:19:25;26.70;67.10
6256;DHT22;3161;48.794;9.784;2023-07-20T11:21:58;26.80;65.30
6256;DHT22;3161;48.794;9.784;2023-07-20T11:24:23;26.90;64.50
6256;DHT22;3161;48.794;9.784;2023-07-20T11:26:54;26.80;65.80
6256;DHT22;3161;48.794;9.784;2023-07-20T11:29:23;26.80;65.20
6256;DHT22;3161;48.794;9.784;2023-07-20T11:31:52;26.90;63.70
6256;DHT22;3161;48.794;9.784;2023-07-20T11:34:20;26.90;62.30
6256;DHT22;3161;48.794;9.784;2023-07-20T11:36:50;27.00;61.40
6256;DHT22;3161;48.794;9.784;2023-07-20T11:39:19;26.90;63.50
6256;DHT22;3161;48.794;9.784;2023-07-20T11:41:49;27.60;64.60
6256;DHT22;3161;48.794;9.784;2023-07-20T11:44:18;27.00;64.30
6256;DHT22;3161;48.794;9.784;2023-07-20T11:46:47;27.20;61.70
6256;DHT22;3161;48.794;9.784;2023-07-20T11:49:15;27.20;62.60
6256;DHT22;3161;48.794;9.784;2023-07-20T11:51:42;27.20;63.90
6256;DHT22;3161;48.794;9.784;2023-07-20T11:54:10;27.30;62.50
6256;DHT22;3161;48.794;9.784;2023-07-20T11:56:41;27.30;62.60
6256;DHT22;3161;48.794;9.784;2023-07-20T11:59:09;27.40;63.00
6256;DHT22;3161;48.794;9.784;2023-07-20T12:01:36;27.60;64.60
6256;DHT22;3161;48.794;9.784;2023-07-20T12:04:04;27.70;61.80
6256;DHT22;3161;48.794;9.784;2023-07-20T12:06:33;28.00;61.00
6256;DHT22;3161;48.794;9.784;2023-07-20T12:09:01;28.10;60.20
6256;DHT22;3161;48.794;9.784;2023-07-20T12:11:38;28.10;59.50
6256;DHT22;3161;48.794;9.784;2023-07-20T12:16:58;28.00;58.30
6256;DHT22;3161;48.794;9.784;2023-07-20T12:19:25;28.00;58.10
6256;DHT22;3161;48.794;9.784;2023-07-20T12:21:57;28.00;60.00
6256;DHT22;3161;48.794;9.784;2023-07-20T12:24:25;28.00;58.70
6256;DHT22;3161;48.794;9.784;2023-07-20T12:26:57;27.90;58.00
6256;DHT22;3161;48.794;9.784;2023-07-20T12:29:25;27.90;60.00
6256;DHT22;3161;48.794;9.784;2023-07-20T12:31:53;28.00;58.70
6256;DHT22;3161;48.794;9.784;2023-07-20T12:34:20;28.30;55.10
6256;DHT22;3161;48.794;9.784;2023-07-20T12:36:48;28.50;56.20
6256;DHT22;3161;48.794;9.784;2023-07-20T12:39:16;28.50;57.30
6256;DHT22;3161;48.794;9.784;2023-07-20T12:41:43;28.50;56.00
6256;DHT22;3161;48.794;9.784;2023-07-20T12:44:11;28.50;55.90
6256;DHT22;3161;48.794;9.784;2023-07-20T12:46:38;28.60;56.00
6256;DHT22;3161;48.794;9.784;2023-07-20T12:49:06;28.90;55.60
6256;DHT22;3161;48.794;9.784;2023-07-20T12:51:33;29.30;55.20
6256;DHT22;3161;48.794;9.784;2023-07-20T12:54:01;29.70;53.30
6256;DHT22;3161;48.794;9.784;2023-07-20T12:56:28;30.30;51.30
6256;DHT22;3161;48.794;9.784;2023-07-20T12:58:56;31.00;49.20
6256;DHT22;3161;48.794;9.784;2023-07-20T13:01:24;31.30;49.40
6256;DHT22;3161;48.794;9.784;2023-07-20T13:03:52;31.20;49.10
6256;DHT22;3161;48.794;9.784;2023-07-20T13:06:20;30.90;48.20
6256;DHT22;3161;48.794;9.784;2023-07-20T13:08:48;30.60;49.30
6256;DHT22;3161;48.794;9.784;2023-07-20T13:11:17;30.20;49.80
6256;DHT22;3161;48.794;9.784;2023-07-20T13:13:44;30.60;49.10
6256;DHT22;3161;48.794;9.784;2023-07-20T13:16:12;31.70;47.20
6256;DHT22;3161;48.794;9.784;2023-07-20T13:18:41;33.10;46.40
6256;DHT22;3161;48.794;9.784;2023-07-20T13:21:09;34.40;43.60
6256;DHT22;3161;48.794;9.784;2023-07-20T13:23:37;35.00;42.50
6256;DHT22;3161;48.794;9.784;2023-07-20T13:26:05;34.80;42.60
6256;DHT22;3161;48.794;9.784;2023-07-20T13:28:34;34.40;42.60
6256;DHT22;3161;48.794;9.784;2023-07-20T13:31:02;33.70;42.10
6256;DHT22;3161;48.794;9.784;2023-07-20T13:33:29;33.10;42.60
6256;DHT22;3161;48.794;9.784;2023-07-20T13:35:57;32.70;42.10
6256;DHT22;3161;48.794;9.784;2023-07-20T13:38:24;32.10;44.40
6256;DHT22;3161;48.794;9.784;2023-07-20T13:40:52;31.70;44.60
6256;DHT22;3161;48.794;9.784;2023-07-20T13:43:20;31.70;45.10
6256;DHT22;3161;48.794;9.784;2023-07-20T13:45:47;31.50;46.60
6256;DHT22;3161;48.794;9.784;2023-07-20T13:48:15;31.50;45.00
6256;DHT22;3161;48.794;9.784;2023-07-20T13:50:44;31.50;47.30
6256;DHT22;3161;48.794;9.784;2023-07-20T13:53:11;31.70;45.20
6256;DHT22;3161;48.794;9.784;2023-07-20T13:55:39;32.10;44.30
6256;DHT22;3161;48.794;9.784;2023-07-20T13:58:07;32.10;45.70
6256;DHT22;3161;48.794;9.784;2023-07-20T14:00:36;32.10;43.70
6256;DHT22;3161;48.794;9.784;2023-07-20T14:03:04;32.30;44.40
6256;DHT22;3161;48.794;9.784;2023-07-20T14:05:31;32.40;42.40
6256;DHT22;3161;48.794;9.784;2023-07-20T14:08:00;32.30;43.50
6256;DHT22;3161;48.794;9.784;2023-07-20T14:10:27;32.20;44.20
6256;DHT22;3161;48.794;9.784;2023-07-20T14:12:55;31.90;44.70
6256;DHT22;3161;48.794;9.784;2023-07-20T14:15:22;31.50;45.30
6256;DHT22;3161;48.794;9.784;2023-07-20T14:17:50;31.20;47.50
6256;DHT22;3161;48.794;9.784;2023-07-20T14:20:17;31.00;44.10
6256;DHT22;3161;48.794;9.784;2023-07-20T14:22:45;30.80;46.50
6256;DHT22;3161;48.794;9.784;2023-07-20T14:25:14;30.60;44.50
6256;DHT22;3161;48.794;9.784;2023-07-20T14:27:42;30.30;47.20
6256;DHT22;3161;48.794;9.784;2023-07-20T14:30:10;30.10;46.50
6256;DHT22;3161;48.794;9.784;2023-07-20T14:32:39;30.00;48.10
6256;DHT22;3161;48.794;9.784;2023-07-20T14:35:07;29.90;47.90
6256;DHT22;3161;48.794;9.784;2023-07-20T14:37:35;29.60;46.00
6256;DHT22;3161;48.794;9.784;2023-07-20T14:40:03;29.50;45.90
6256;DHT22;3161;48.794;9.784;2023-07-20T14:42:31;29.30;48.70
6256;DHT22;3161;48.794;9.784;2023-07-20T14:44:59;29.10;49.10
6256;DHT22;3161;48.794;9.784;2023-07-20T14:47:26;29.00;48.60
6256;DHT22;3161;48.794;9.784;2023-07-20T14:49:54;29.00;49.50
6256;DHT22;3161;48.794;9.784;2023-07-20T14:52:21;29.00;48.30
6256;DHT22;3161;48.794;9.784;2023-07-20T14:54:49;28.90;47.90
6256;DHT22;3161;48.794;9.784;2023-07-20T14:57:17;28.80;48.70
6256;DHT22;3161;48.794;9.784;2023-07-20T14:59:45;28.70;46.10
6256;DHT22;3161;48.794;9.784;2023-07-20T15:02:12;28.60;45.90
6256;DHT22;3161;48.794;9.784;2023-07-20T15:04:47;28.40;45.90
6256;DHT22;3161;48.794;9.784;2023-07-20T15:07:19;28.20;47.30
6256;DHT22;3161;48.794;9.784;2023-07-20T15:09:49;28.00;48.70
6256;DHT22;3161;48.794;9.784;2023-07-20T15:12:16;28.00;49.00
6256;DHT22;3161;48.794;9.784;2023-07-20T15:14:44;27.90;46.90
6256;DHT22;3161;48.794;9.784;2023-07-20T15:17:13;27.80;47.40
6256;DHT22;3161;48.794;9.784;2023-07-20T15:19:41;27.70;47.80
6256;DHT22;3161;48.794;9.784;2023-07-20T15:22:08;27.70;47.80
6256;DHT22;3161;48.794;9.784;2023-07-20T15:24:36;27.50;49.10
6256;DHT22;3161;48.794;9.784;2023-07-20T15:27:04;27.50;48.00
6256;DHT22;3161;48.794;9.784;2023-07-20T15:29:31;27.50;49.00
6256;DHT22;3161;48.794;9.784;2023-07-20T15:31:59;27.50;49.70
6256;DHT22;3161;48.794;9.784;2023-07-20T15:34:26;27.50;49.20
6256;DHT22;3161;48.794;9.784;2023-07-20T15:36:54;27.50;48.10
6256;DHT22;3161;48.794;9.784;2023-07-20T15:39:21;27.60;49.50
6256;DHT22;3161;48.794;9.784;2023-07-20T15:41:50;27.60;50.10
6256;DHT22;3161;48.794;9.784;2023-07-20T15:44:17;27.50;49.10
6256;DHT22;3161;48.794;9.784;2023-07-20T15:46:47;27.50;47.90
6256;DHT22;3161;48.794;9.784;2023-07-20T15:49:15;27.50;48.60
6256;DHT22;3161;48.794;9.784;2023-07-20T15:51:42;27.50;48.20
6256;DHT22;3161;48.794;9.784;2023-07-20T15:54:12;27.50;47.90
6256;DHT22;3161;48.794;9.784;2023-07-20T15:56:42;27.40;48.30
6256;DHT22;3161;48.794;9.784;2023-07-20T15:59:11;27.40;49.40
6256;DHT22;3161;48.794;9.784;2023-07-20T16:01:39;27.30;50.20
6256;DHT22;3161;48.794;9.784;2023-07-20T16:04:08;27.30;48.60
6256;DHT22;3161;48.794;9.784;2023-07-20T16:06:36;27.30;48.70
6256;DHT22;3161;48.794;9.784;2023-07-20T16:09:04;27.20;49.80
6256;DHT22;3161;48.794;9.784;2023-07-20T16:11:33;27.20;49.50
6256;DHT22;3161;48.794;9.784;2023-07-20T16:14:02;27.10;48.90
6256;DHT22;3161;48.794;9.784;2023-07-20T16:16:30;27.10;49.20
6256;DHT22;3161;48.794;9.784;2023-07-20T16:18:58;27.00;50.20
6256;DHT22;3161;48.794;9.784;2023-07-20T16:21:26;27.00;50.80
6256;DHT22;3161;48.794;9.784;2023-07-20T16:23:53;26.90;49.90